sensor_id;sensor_type;location;lat;lon;timestamp;P1;durP1;ratioP1;P2;durP2;ratioP2
67500;SDS011;54349;52.528;19.760;2023-06-10T00:00:24;5.20;;;3.30;;
67500;SDS011;54349;52.528;19.760;2023-06-10T00:03:14;5.00;;;3.30;;
67500;SDS011;54349;52.528;19.760;2023-06-10T00:05:44;5.40;;;3.40;;
67500;SDS011;54349;52.528;19.760;2023-06-10T00:08:13;5.40;;;3.50;;
67500;SDS011;54349;52.528;19.760;2023-06-10T00:10:43;5.10;;;3.20;;
67500;SDS011;54349;52.528;19.760;2023-06-10T00:13:11;6.00;;;3.20;;
67500;SDS011;54349;52.528;19.760;2023-06-10T00:15:40;4.90;;;2.90;;
67500;SDS011;54349;52.528;19.760;2023-06-10T00:18:08;5.90;;;3.20;;
67500;SDS011;54349;52.528;19.760;2023-06-10T00:20:38;6.20;;;3.20;;
67500;SDS011;54349;52.528;19.760;2023-06-10T00:23:06;5.10;;;3.30;;
67500;SDS011;54349;52.528;19.760;2023-06-10T00:25:36;5.10;;;3.10;;
67500;SDS011;54349;52.528;19.760;2023-06-10T00:28:05;6.40;;;3.40;;
67500;SDS011;54349;52.528;19.760;2023-06-10T00:30:33;5.50;;;3.10;;
67500;SDS011;54349;52.528;19.760;2023-06-10T00:33:01;5.20;;;3.30;;
67500;SDS011;54349;52.528;19.760;2023-06-10T00:35:30;6.30;;;3.20;;
67500;SDS011;54349;52.528;19.760;2023-06-10T00:38:00;6.10;;;3.20;;
67500;SDS011;54349;52.528;19.760;2023-06-10T00:40:33;5.20;;;3.10;;
67500;SDS011;54349;52.528;19.760;2023-06-10T00:43:07;4.70;;;3.10;;
67500;SDS011;54349;52.528;19.760;2023-06-10T00:45:36;4.90;;;3.00;;
67500;SDS011;54349;52.528;19.760;2023-06-10T00:48:05;5.00;;;2.90;;
67500;SDS011;54349;52.528;19.760;2023-06-10T00:50:33;6.00;;;3.10;;
67500;SDS011;54349;52.528;19.760;2023-06-10T00:53:02;4.80;;;3.20;;
67500;SDS011;54349;52.528;19.760;2023-06-10T00:55:32;5.30;;;3.30;;
67500;SDS011;54349;52.528;19.760;2023-06-10T00:58:01;5.40;;;3.10;;
67500;SDS011;54349;52.528;19.760;2023-06-10T01:00:32;6.00;;;3.20;;
67500;SDS011;54349;52.528;19.760;2023-06-10T01:03:03;4.70;;;2.70;;
67500;SDS011;54349;52.528;19.760;2023-06-10T01:05:40;6.10;;;3.00;;
67500;SDS011;54349;52.528;19.760;2023-06-10T01:08:22;5.50;;;2.90;;
67500;SDS011;54349;52.528;19.760;2023-06-10T01:11:08;5.20;;;2.90;;
67500;SDS011;54349;52.528;19.760;2023-06-10T01:13:47;5.00;;;3.00;;
67500;SDS011;54349;52.528;19.760;2023-06-10T01:16:19;5.30;;;3.00;;
67500;SDS011;54349;52.528;19.760;2023-06-10T01:18:48;4.60;;;2.80;;
67500;SDS011;54349;52.528;19.760;2023-06-10T01:21:22;5.90;;;3.20;;
67500;SDS011;54349;52.528;19.760;2023-06-10T01:23:54;5.10;;;3.10;;
67500;SDS011;54349;52.528;19.760;2023-06-10T01:26:30;5.50;;;2.80;;
67500;SDS011;54349;52.528;19.760;2023-06-10T01:29:13;5.50;;;3.00;;
67500;SDS011;54349;52.528;19.760;2023-06-10T01:31:53;5.10;;;3.10;;
67500;SDS011;54349;52.528;19.760;2023-06-10T01:34:44;5.50;;;3.00;;
67500;SDS011;54349;52.528;19.760;2023-06-10T01:37:16;5.50;;;2.90;;
67500;SDS011;54349;52.528;19.760;2023-06-10T01:39:48;5.50;;;3.00;;
67500;SDS011;54349;52.528;19.760;2023-06-10T01:42:18;5.70;;;3.30;;
67500;SDS011;54349;52.528;19.760;2023-06-10T01:44:47;6.10;;;3.10;;
67500;SDS011;54349;52.528;19.760;2023-06-10T01:47:15;6.20;;;3.10;;
67500;SDS011;54349;52.528;19.760;2023-06-10T01:49:44;4.90;;;3.00;;
67500;SDS011;54349;52.528;19.760;2023-06-10T01:52:13;5.40;;;2.90;;
67500;SDS011;54349;52.528;19.760;2023-06-10T01:54:42;5.10;;;3.10;;
67500;SDS011;54349;52.528;19.760;2023-06-10T01:57:12;5.60;;;3.00;;
67500;SDS011;54349;52.528;19.760;2023-06-10T01:59:40;6.30;;;3.20;;
67500;SDS011;54349;52.528;19.760;2023-06-10T02:02:12;5.40;;;3.20;;
67500;SDS011;54349;52.528;19.760;2023-06-10T02:04:40;4.70;;;2.90;;
67500;SDS011;54349;52.528;19.760;2023-06-10T02:07:09;6.30;;;3.20;;
67500;SDS011;54349;52.528;19.760;2023-06-10T02:09:37;6.10;;;3.10;;
67500;SDS011;54349;52.528;19.760;2023-06-10T02:12:06;4.90;;;3.00;;
67500;SDS011;54349;52.528;19.760;2023-06-10T02:14:35;5.00;;;3.00;;
67500;SDS011;54349;52.528;19.760;2023-06-10T02:17:04;5.10;;;3.10;;
67500;SDS011;54349;52.528;19.760;2023-06-10T02:19:34;5.20;;;3.10;;
67500;SDS011;54349;52.528;19.760;2023-06-10T02:22:05;5.20;;;2.90;;
67500;SDS011;54349;52.528;19.760;2023-06-10T02:24:33;5.70;;;2.90;;
67500;SDS011;54349;52.528;19.760;2023-06-10T02:27:04;5.20;;;2.90;;
67500;SDS011;54349;52.528;19.760;2023-06-10T02:29:34;5.50;;;3.20;;
67500;SDS011;54349;52.528;19.760;2023-06-10T02:32:03;4.90;;;2.90;;
67500;SDS011;54349;52.528;19.760;2023-06-10T02:34:37;4.40;;;2.80;;
67500;SDS011;54349;52.528;19.760;2023-06-10T02:37:06;5.90;;;2.90;;
67500;SDS011;54349;52.528;19.760;2023-06-10T02:39:35;4.60;;;2.90;;
67500;SDS011;54349;52.528;19.760;2023-06-10T02:42:06;6.10;;;3.10;;
67500;SDS011;54349;52.528;19.760;2023-06-10T02:44:35;6.10;;;3.20;;
67500;SDS011;54349;52.528;19.760;2023-06-10T02:47:04;4.30;;;2.60;;
67500;SDS011;54349;52.528;19.760;2023-06-10T02:49:34;5.20;;;3.00;;
67500;SDS011;54349;52.528;19.760;2023-06-10T02:52:03;5.00;;;2.90;;
67500;SDS011;54349;52.528;19.760;2023-06-10T02:54:32;6.00;;;3.30;;
67500;SDS011;54349;52.528;19.760;2023-06-10T02:57:01;5.50;;;3.00;;
67500;SDS011;54349;52.528;19.760;2023-06-10T02:59:30;4.50;;;2.90;;
67500;SDS011;54349;52.528;19.760;2023-06-10T03:01:59;5.50;;;3.10;;
67500;SDS011;54349;52.528;19.760;2023-06-10T03:04:31;6.30;;;3.00;;
67500;SDS011;54349;52.528;19.760;2023-06-10T03:07:03;5.00;;;3.00;;
67500;SDS011;54349;52.528;19.760;2023-06-10T03:09:35;5.20;;;3.00;;
67500;SDS011;54349;52.528;19.760;2023-06-10T03:12:05;5.30;;;3.00;;
67500;SDS011;54349;52.528;19.760;2023-06-10T03:14:38;5.40;;;2.70;;
67500;SDS011;54349;52.528;19.760;2023-06-10T03:17:07;5.00;;;2.80;;
67500;SDS011;54349;52.528;19.760;2023-06-10T03:19:37;5.70;;;3.10;;
67500;SDS011;54349;52.528;19.760;2023-06-10T03:22:15;4.80;;;2.90;;
67500;SDS011;54349;52.528;19.760;2023-06-10T03:24:50;6.00;;;2.90;;
67500;SDS011;54349;52.528;19.760;2023-06-10T03:27:19;5.90;;;3.10;;
67500;SDS011;54349;52.528;19.760;2023-06-10T03:29:51;4.90;;;2.60;;
67500;SDS011;54349;52.528;19.760;2023-06-10T03:32:20;5.20;;;3.10;;
67500;SDS011;54349;52.528;19.760;2023-06-10T03:34:49;4.60;;;2.60;;
67500;SDS011;54349;52.528;19.760;2023-06-10T03:37:17;5.20;;;2.60;;
67500;SDS011;54349;52.528;19.760;2023-06-10T03:39:47;6.50;;;2.90;;
67500;SDS011;54349;52.528;19.760;2023-06-10T03:42:15;4.80;;;2.70;;
67500;SDS011;54349;52.528;19.760;2023-06-10T03:44:44;4.70;;;3.00;;
67500;SDS011;54349;52.528;19.760;2023-06-10T03:47:12;5.10;;;3.10;;
67500;SDS011;54349;52.528;19.760;2023-06-10T03:49:41;4.00;;;2.60;;
67500;SDS011;54349;52.528;19.760;2023-06-10T03:52:10;4.50;;;2.80;;
67500;SDS011;54349;52.528;19.760;2023-06-10T03:54:39;4.80;;;2.80;;
67500;SDS011;54349;52.528;19.760;2023-06-10T03:57:08;5.30;;;2.90;;
67500;SDS011;54349;52.528;19.760;2023-06-10T03:59:36;8.00;;;2.80;;
67500;SDS011;54349;52.528;19.760;2023-06-10T04:02:05;6.20;;;2.80;;
67500;SDS011;54349;52.528;19.760;2023-06-10T04:04:35;6.50;;;3.00;;
67500;SDS011;54349;52.528;19.760;2023-06-10T04:07:05;4.90;;;2.90;;
67500;SDS011;54349;52.528;19.760;2023-06-10T04:09:35;4.20;;;2.60;;
67500;SDS011;54349;52.528;19.760;2023-06-10T04:12:07;5.80;;;3.00;;
67500;SDS011;54349;52.528;19.760;2023-06-10T04:14:37;5.60;;;3.00;;
67500;SDS011;54349;52.528;19.760;2023-06-10T04:17:06;5.20;;;2.90;;
67500;SDS011;54349;52.528;19.760;2023-06-10T04:19:36;5.40;;;2.70;;
67500;SDS011;54349;52.528;19.760;2023-06-10T04:22:05;4.70;;;2.80;;
67500;SDS011;54349;52.528;19.760;2023-06-10T04:24:34;4.80;;;2.80;;
67500;SDS011;54349;52.528;19.760;2023-06-10T04:27:02;5.00;;;3.00;;
67500;SDS011;54349;52.528;19.760;2023-06-10T04:29:31;5.00;;;2.90;;
67500;SDS011;54349;52.528;19.760;2023-06-10T04:32:00;6.20;;;2.80;;
67500;SDS011;54349;52.528;19.760;2023-06-10T04:34:31;4.40;;;2.90;;
67500;SDS011;54349;52.528;19.760;2023-06-10T04:37:00;4.90;;;3.20;;
67500;SDS011;54349;52.528;19.760;2023-06-10T04:39:29;6.70;;;3.00;;
67500;SDS011;54349;52.528;19.760;2023-06-10T04:41:59;6.30;;;2.90;;
67500;SDS011;54349;52.528;19.760;2023-06-10T04:44:29;5.60;;;2.90;;
67500;SDS011;54349;52.528;19.760;2023-06-10T04:46:58;6.50;;;3.10;;
67500;SDS011;54349;52.528;19.760;2023-06-10T04:49:27;5.00;;;2.60;;
67500;SDS011;54349;52.528;19.760;2023-06-10T04:51:57;5.10;;;2.90;;
67500;SDS011;54349;52.528;19.760;2023-06-10T04:54:26;5.10;;;3.00;;
67500;SDS011;54349;52.528;19.760;2023-06-10T04:56:54;6.20;;;2.70;;
67500;SDS011;54349;52.528;19.760;2023-06-10T04:59:23;6.50;;;3.10;;
67500;SDS011;54349;52.528;19.760;2023-06-10T05:01:51;4.70;;;2.80;;
67500;SDS011;54349;52.528;19.760;2023-06-10T05:04:20;5.50;;;2.60;;
67500;SDS011;54349;52.528;19.760;2023-06-10T05:06:48;4.50;;;2.90;;
67500;SDS011;54349;52.528;19.760;2023-06-10T05:09:16;4.60;;;2.90;;
67500;SDS011;54349;52.528;19.760;2023-06-10T05:11:44;6.00;;;2.90;;
67500;SDS011;54349;52.528;19.760;2023-06-10T05:14:12;5.10;;;2.80;;
67500;SDS011;54349;52.528;19.760;2023-06-10T05:16:41;4.50;;;2.80;;
67500;SDS011;54349;52.528;19.760;2023-06-10T05:19:10;7.70;;;3.10;;
67500;SDS011;54349;52.528;19.760;2023-06-10T05:21:40;5.10;;;2.80;;
67500;SDS011;54349;52.528;19.760;2023-06-10T05:24:09;5.40;;;2.90;;
67500;SDS011;54349;52.528;19.760;2023-06-10T05:26:37;4.70;;;2.60;;
67500;SDS011;54349;52.528;19.760;2023-06-10T05:29:06;4.70;;;2.80;;
67500;SDS011;54349;52.528;19.760;2023-06-10T05:31:37;4.50;;;2.90;;
67500;SDS011;54349;52.528;19.760;2023-06-10T05:34:05;4.40;;;2.70;;
67500;SDS011;54349;52.528;19.760;2023-06-10T05:36:33;4.60;;;3.00;;
67500;SDS011;54349;52.528;19.760;2023-06-10T05:39:02;6.00;;;3.30;;
67500;SDS011;54349;52.528;19.760;2023-06-10T05:41:30;4.80;;;2.70;;
67500;SDS011;54349;52.528;19.760;2023-06-10T05:43:59;4.50;;;2.80;;
67500;SDS011;54349;52.528;19.760;2023-06-10T05:46:28;6.10;;;2.80;;
67500;SDS011;54349;52.528;19.760;2023-06-10T05:48:57;4.20;;;2.40;;
67500;SDS011;54349;52.528;19.760;2023-06-10T05:51:25;5.10;;;2.80;;
67500;SDS011;54349;52.528;19.760;2023-06-10T05:53:55;4.40;;;2.80;;
67500;SDS011;54349;52.528;19.760;2023-06-10T05:56:24;4.60;;;2.70;;
67500;SDS011;54349;52.528;19.760;2023-06-10T05:58:54;4.70;;;2.70;;
67500;SDS011;54349;52.528;19.760;2023-06-10T06:01:22;5.90;;;2.70;;
67500;SDS011;54349;52.528;19.760;2023-06-10T06:03:51;6.00;;;2.70;;
67500;SDS011;54349;52.528;19.760;2023-06-10T06:06:20;6.10;;;3.00;;
67500;SDS011;54349;52.528;19.760;2023-06-10T06:08:48;5.30;;;2.80;;
67500;SDS011;54349;52.528;19.760;2023-06-10T06:11:17;4.20;;;2.70;;
67500;SDS011;54349;52.528;19.760;2023-06-10T06:13:46;5.10;;;2.80;;
67500;SDS011;54349;52.528;19.760;2023-06-10T06:16:19;4.80;;;2.80;;
67500;SDS011;54349;52.528;19.760;2023-06-10T06:18:48;5.40;;;3.00;;
67500;SDS011;54349;52.528;19.760;2023-06-10T06:21:17;6.80;;;3.00;;
67500;SDS011;54349;52.528;19.760;2023-06-10T06:23:45;5.90;;;3.00;;
67500;SDS011;54349;52.528;19.760;2023-06-10T06:26:13;4.50;;;2.70;;
67500;SDS011;54349;52.528;19.760;2023-06-10T06:28:42;5.90;;;2.90;;
67500;SDS011;54349;52.528;19.760;2023-06-10T06:31:10;5.90;;;2.90;;
67500;SDS011;54349;52.528;19.760;2023-06-10T06:33:39;6.10;;;3.10;;
67500;SDS011;54349;52.528;19.760;2023-06-10T06:36:08;5.30;;;3.10;;
67500;SDS011;54349;52.528;19.760;2023-06-10T06:38:36;5.60;;;3.20;;
67500;SDS011;54349;52.528;19.760;2023-06-10T06:41:05;5.90;;;3.00;;
67500;SDS011;54349;52.528;19.760;2023-06-10T06:43:34;5.10;;;2.90;;
67500;SDS011;54349;52.528;19.760;2023-06-10T06:46:08;6.30;;;2.90;;
67500;SDS011;54349;52.528;19.760;2023-06-10T06:48:38;6.00;;;2.90;;
67500;SDS011;54349;52.528;19.760;2023-06-10T06:51:07;5.90;;;2.80;;
67500;SDS011;54349;52.528;19.760;2023-06-10T06:53:36;7.60;;;3.00;;
67500;SDS011;54349;52.528;19.760;2023-06-10T06:56:04;5.40;;;2.90;;
67500;SDS011;54349;52.528;19.760;2023-06-10T06:58:34;5.80;;;2.90;;
67500;SDS011;54349;52.528;19.760;2023-06-10T07:01:03;5.20;;;3.00;;
67500;SDS011;54349;52.528;19.760;2023-06-10T07:03:31;5.10;;;3.10;;
67500;SDS011;54349;52.528;19.760;2023-06-10T07:06:00;5.50;;;2.60;;
67500;SDS011;54349;52.528;19.760;2023-06-10T07:08:30;5.50;;;2.70;;
67500;SDS011;54349;52.528;19.760;2023-06-10T07:11:03;6.00;;;3.00;;
67500;SDS011;54349;52.528;19.760;2023-06-10T07:13:32;4.90;;;2.80;;
67500;SDS011;54349;52.528;19.760;2023-06-10T07:16:01;5.70;;;3.00;;
67500;SDS011;54349;52.528;19.760;2023-06-10T07:18:31;4.80;;;2.90;;
67500;SDS011;54349;52.528;19.760;2023-06-10T07:20:59;7.50;;;2.70;;
67500;SDS011;54349;52.528;19.760;2023-06-10T07:23:28;6.20;;;3.10;;
67500;SDS011;54349;52.528;19.760;2023-06-10T07:25:56;5.40;;;3.10;;
67500;SDS011;54349;52.528;19.760;2023-06-10T07:28:26;5.10;;;3.00;;
67500;SDS011;54349;52.528;19.760;2023-06-10T07:30:54;4.90;;;2.70;;
67500;SDS011;54349;52.528;19.760;2023-06-10T07:33:23;4.50;;;2.80;;
67500;SDS011;54349;52.528;19.760;2023-06-10T07:35:52;4.60;;;2.80;;
67500;SDS011;54349;52.528;19.760;2023-06-10T07:38:22;4.90;;;2.50;;
67500;SDS011;54349;52.528;19.760;2023-06-10T07:40:50;4.70;;;2.80;;
67500;SDS011;54349;52.528;19.760;2023-06-10T07:43:19;5.80;;;2.90;;
67500;SDS011;54349;52.528;19.760;2023-06-10T07:45:48;4.60;;;2.70;;
67500;SDS011;54349;52.528;19.760;2023-06-10T07:48:18;5.10;;;3.00;;
67500;SDS011;54349;52.528;19.760;2023-06-10T07:50:47;6.60;;;3.10;;
67500;SDS011;54349;52.528;19.760;2023-06-10T07:53:17;5.30;;;2.70;;
67500;SDS011;54349;52.528;19.760;2023-06-10T07:55:45;4.40;;;2.60;;
67500;SDS011;54349;52.528;19.760;2023-06-10T07:58:16;5.90;;;2.90;;
67500;SDS011;54349;52.528;19.760;2023-06-10T08:00:46;4.70;;;2.70;;
67500;SDS011;54349;52.528;19.760;2023-06-10T08:03:16;6.00;;;3.20;;
67500;SDS011;54349;52.528;19.760;2023-06-10T08:05:44;5.30;;;2.90;;
67500;SDS011;54349;52.528;19.760;2023-06-10T08:08:14;6.50;;;3.00;;
67500;SDS011;54349;52.528;19.760;2023-06-10T08:10:43;4.40;;;2.40;;
67500;SDS011;54349;52.528;19.760;2023-06-10T08:13:11;5.20;;;2.80;;
67500;SDS011;54349;52.528;19.760;2023-06-10T08:15:40;4.20;;;2.70;;
67500;SDS011;54349;52.528;19.760;2023-06-10T08:18:08;5.00;;;2.80;;
67500;SDS011;54349;52.528;19.760;2023-06-10T08:20:37;3.90;;;2.50;;
67500;SDS011;54349;52.528;19.760;2023-06-10T08:23:05;5.20;;;2.80;;
67500;SDS011;54349;52.528;19.760;2023-06-10T08:25:33;4.20;;;2.60;;
67500;SDS011;54349;52.528;19.760;2023-06-10T08:28:02;4.60;;;2.70;;
67500;SDS011;54349;52.528;19.760;2023-06-10T08:30:30;5.00;;;2.90;;
67500;SDS011;54349;52.528;19.760;2023-06-10T08:33:00;4.30;;;2.70;;
67500;SDS011;54349;52.528;19.760;2023-06-10T08:35:28;5.50;;;2.60;;
67500;SDS011;54349;52.528;19.760;2023-06-10T08:37:56;3.70;;;2.60;;
67500;SDS011;54349;52.528;19.760;2023-06-10T08:40:25;5.60;;;2.70;;
67500;SDS011;54349;52.528;19.760;2023-06-10T08:43:07;6.60;;;2.80;;
67500;SDS011;54349;52.528;19.760;2023-06-10T08:45:38;5.90;;;3.00;;
67500;SDS011;54349;52.528;19.760;2023-06-10T08:48:12;4.50;;;2.70;;
67500;SDS011;54349;52.528;19.760;2023-06-10T08:50:45;4.90;;;2.90;;
67500;SDS011;54349;52.528;19.760;2023-06-10T08:53:18;4.60;;;2.70;;
67500;SDS011;54349;52.528;19.760;2023-06-10T08:55:50;4.90;;;2.70;;
67500;SDS011;54349;52.528;19.760;2023-06-10T08:58:20;4.80;;;2.80;;
67500;SDS011;54349;52.528;19.760;2023-06-10T09:00:49;6.10;;;3.30;;
67500;SDS011;54349;52.528;19.760;2023-06-10T09:03:19;4.90;;;2.90;;
67500;SDS011;54349;52.528;19.760;2023-06-10T09:05:50;4.80;;;2.70;;
67500;SDS011;54349;52.528;19.760;2023-06-10T09:08:19;4.50;;;2.70;;
67500;SDS011;54349;52.528;19.760;2023-06-10T09:10:48;4.60;;;2.70;;
67500;SDS011;54349;52.528;19.760;2023-06-10T09:13:18;5.30;;;2.70;;
67500;SDS011;54349;52.528;19.760;2023-06-10T09:15:47;4.30;;;2.60;;
67500;SDS011;54349;52.528;19.760;2023-06-10T09:18:17;4.80;;;2.70;;
67500;SDS011;54349;52.528;19.760;2023-06-10T09:20:46;4.70;;;2.80;;
67500;SDS011;54349;52.528;19.760;2023-06-10T09:23:16;5.10;;;2.80;;
67500;SDS011;54349;52.528;19.760;2023-06-10T09:25:45;4.30;;;2.80;;
67500;SDS011;54349;52.528;19.760;2023-06-10T09:28:16;4.70;;;2.80;;
67500;SDS011;54349;52.528;19.760;2023-06-10T09:30:45;6.50;;;2.50;;
67500;SDS011;54349;52.528;19.760;2023-06-10T09:33:15;4.30;;;2.50;;
67500;SDS011;54349;52.528;19.760;2023-06-10T09:35:48;4.20;;;2.60;;
67500;SDS011;54349;52.528;19.760;2023-06-10T09:38:21;4.50;;;2.60;;
67500;SDS011;54349;52.528;19.760;2023-06-10T09:40:51;4.30;;;2.70;;
67500;SDS011;54349;52.528;19.760;2023-06-10T09:43:22;4.90;;;2.60;;
67500;SDS011;54349;52.528;19.760;2023-06-10T09:45:51;5.00;;;2.80;;
67500;SDS011;54349;52.528;19.760;2023-06-10T09:48:24;5.70;;;2.80;;
67500;SDS011;54349;52.528;19.760;2023-06-10T09:50:55;4.50;;;2.70;;
67500;SDS011;54349;52.528;19.760;2023-06-10T09:53:23;4.80;;;2.60;;
67500;SDS011;54349;52.528;19.760;2023-06-10T09:55:52;5.10;;;2.60;;
67500;SDS011;54349;52.528;19.760;2023-06-10T09:58:34;4.70;;;2.80;;
67500;SDS011;54349;52.528;19.760;2023-06-10T10:01:06;5.90;;;2.90;;
67500;SDS011;54349;52.528;19.760;2023-06-10T10:03:45;5.90;;;2.90;;
67500;SDS011;54349;52.528;19.760;2023-06-10T10:06:17;7.50;;;3.10;;
67500;SDS011;54349;52.528;19.760;2023-06-10T10:08:50;7.00;;;3.30;;
67500;SDS011;54349;52.528;19.760;2023-06-10T10:11:21;9.90;;;3.30;;
67500;SDS011;54349;52.528;19.760;2023-06-10T10:13:51;8.00;;;3.10;;
67500;SDS011;54349;52.528;19.760;2023-06-10T10:16:41;7.50;;;3.00;;
67500;SDS011;54349;52.528;19.760;2023-06-10T10:19:18;7.10;;;3.00;;
67500;SDS011;54349;52.528;19.760;2023-06-10T10:21:56;7.60;;;3.30;;
67500;SDS011;54349;52.528;19.760;2023-06-10T10:24:38;7.30;;;3.50;;
67500;SDS011;54349;52.528;19.760;2023-06-10T10:27:20;6.40;;;3.00;;
67500;SDS011;54349;52.528;19.760;2023-06-10T10:29:54;6.10;;;2.90;;
67500;SDS011;54349;52.528;19.760;2023-06-10T10:32:32;9.80;;;3.20;;
67500;SDS011;54349;52.528;19.760;2023-06-10T10:35:09;5.80;;;2.90;;
67500;SDS011;54349;52.528;19.760;2023-06-10T10:37:45;7.10;;;3.20;;
67500;SDS011;54349;52.528;19.760;2023-06-10T10:40:15;6.40;;;2.90;;
67500;SDS011;54349;52.528;19.760;2023-06-10T10:42:47;5.80;;;3.00;;
67500;SDS011;54349;52.528;19.760;2023-06-10T10:45:17;5.60;;;2.90;;
67500;SDS011;54349;52.528;19.760;2023-06-10T10:47:52;6.50;;;3.00;;
67500;SDS011;54349;52.528;19.760;2023-06-10T10:50:23;5.70;;;3.00;;
67500;SDS011;54349;52.528;19.760;2023-06-10T10:53:01;5.60;;;3.10;;
67500;SDS011;54349;52.528;19.760;2023-06-10T10:55:32;5.10;;;3.00;;
67500;SDS011;54349;52.528;19.760;2023-06-10T10:58:07;6.20;;;2.70;;
67500;SDS011;54349;52.528;19.760;2023-06-10T11:00:38;6.10;;;2.90;;
67500;SDS011;54349;52.528;19.760;2023-06-10T11:03:14;5.30;;;3.00;;
67500;SDS011;54349;52.528;19.760;2023-06-10T11:05:48;5.10;;;2.70;;
67500;SDS011;54349;52.528;19.760;2023-06-10T11:10:59;5.30;;;2.90;;
67500;SDS011;54349;52.528;19.760;2023-06-10T11:13:28;5.10;;;2.80;;
67500;SDS011;54349;52.528;19.760;2023-06-10T11:15:58;4.90;;;2.70;;
67500;SDS011;54349;52.528;19.760;2023-06-10T11:18:29;7.40;;;2.80;;
67500;SDS011;54349;52.528;19.760;2023-06-10T11:21:04;4.60;;;2.70;;
67500;SDS011;54349;52.528;19.760;2023-06-10T11:23:42;4.90;;;2.70;;
67500;SDS011;54349;52.528;19.760;2023-06-10T11:29:04;5.20;;;2.80;;
67500;SDS011;54349;52.528;19.760;2023-06-10T11:31:41;4.00;;;2.40;;
67500;SDS011;54349;52.528;19.760;2023-06-10T11:34:12;5.30;;;2.70;;
67500;SDS011;54349;52.528;19.760;2023-06-10T11:36:43;5.30;;;2.40;;
67500;SDS011;54349;52.528;19.760;2023-06-10T11:39:13;5.10;;;2.60;;
67500;SDS011;54349;52.528;19.760;2023-06-10T11:41:42;4.70;;;2.40;;
67500;SDS011;54349;52.528;19.760;2023-06-10T11:44:12;6.40;;;2.80;;
67500;SDS011;54349;52.528;19.760;2023-06-10T11:46:48;5.50;;;2.70;;
67500;SDS011;54349;52.528;19.760;2023-06-10T11:49:20;6.10;;;2.80;;
67500;SDS011;54349;52.528;19.760;2023-06-10T11:51:49;5.00;;;2.70;;
67500;SDS011;54349;52.528;19.760;2023-06-10T11:54:20;5.60;;;2.60;;
67500;SDS011;54349;52.528;19.760;2023-06-10T11:56:50;5.30;;;2.60;;
67500;SDS011;54349;52.528;19.760;2023-06-10T11:59:18;5.00;;;2.70;;
67500;SDS011;54349;52.528;19.760;2023-06-10T12:01:56;5.10;;;2.50;;
67500;SDS011;54349;52.528;19.760;2023-06-10T12:04:25;4.30;;;2.60;;
67500;SDS011;54349;52.528;19.760;2023-06-10T12:06:54;4.50;;;2.50;;
67500;SDS011;54349;52.528;19.760;2023-06-10T12:09:24;3.90;;;2.40;;
67500;SDS011;54349;52.528;19.760;2023-06-10T12:12:03;5.00;;;2.60;;
67500;SDS011;54349;52.528;19.760;2023-06-10T12:20:27;5.20;;;2.50;;
67500;SDS011;54349;52.528;19.760;2023-06-10T12:22:57;5.20;;;2.60;;
67500;SDS011;54349;52.528;19.760;2023-06-10T12:25:30;4.80;;;2.40;;
67500;SDS011;54349;52.528;19.760;2023-06-10T12:27:59;4.20;;;2.50;;
67500;SDS011;54349;52.528;19.760;2023-06-10T12:30:28;4.50;;;2.40;;
67500;SDS011;54349;52.528;19.760;2023-06-10T12:32:58;4.20;;;2.20;;
67500;SDS011;54349;52.528;19.760;2023-06-10T12:35:27;4.20;;;2.40;;
67500;SDS011;54349;52.528;19.760;2023-06-10T12:40:32;4.80;;;2.30;;
67500;SDS011;54349;52.528;19.760;2023-06-10T12:43:03;5.00;;;2.40;;
67500;SDS011;54349;52.528;19.760;2023-06-10T12:45:35;4.10;;;2.40;;
67500;SDS011;54349;52.528;19.760;2023-06-10T12:50:41;3.80;;;2.30;;
67500;SDS011;54349;52.528;19.760;2023-06-10T12:53:11;3.80;;;2.30;;
67500;SDS011;54349;52.528;19.760;2023-06-10T12:55:40;4.60;;;2.30;;
67500;SDS011;54349;52.528;19.760;2023-06-10T12:58:09;4.00;;;2.50;;
67500;SDS011;54349;52.528;19.760;2023-06-10T13:00:37;4.10;;;2.10;;
67500;SDS011;54349;52.528;19.760;2023-06-10T13:03:08;4.50;;;2.60;;
67500;SDS011;54349;52.528;19.760;2023-06-10T13:05:38;4.70;;;2.40;;
67500;SDS011;54349;52.528;19.760;2023-06-10T13:08:10;3.70;;;2.20;;
67500;SDS011;54349;52.528;19.760;2023-06-10T13:10:38;3.90;;;2.30;;
67500;SDS011;54349;52.528;19.760;2023-06-10T13:13:07;3.90;;;2.10;;
67500;SDS011;54349;52.528;19.760;2023-06-10T13:15:38;4.40;;;2.50;;
67500;SDS011;54349;52.528;19.760;2023-06-10T13:18:11;3.90;;;2.20;;
67500;SDS011;54349;52.528;19.760;2023-06-10T13:20:39;4.60;;;2.40;;
67500;SDS011;54349;52.528;19.760;2023-06-10T13:23:08;4.40;;;2.40;;
67500;SDS011;54349;52.528;19.760;2023-06-10T13:25:37;4.50;;;2.20;;
67500;SDS011;54349;52.528;19.760;2023-06-10T13:28:06;4.30;;;2.40;;
67500;SDS011;54349;52.528;19.760;2023-06-10T13:30:35;4.30;;;2.30;;
67500;SDS011;54349;52.528;19.760;2023-06-10T13:33:04;4.70;;;2.60;;
67500;SDS011;54349;52.528;19.760;2023-06-10T13:35:32;4.00;;;2.20;;
67500;SDS011;54349;52.528;19.760;2023-06-10T13:38:01;3.60;;;2.20;;
67500;SDS011;54349;52.528;19.760;2023-06-10T13:40:29;4.30;;;2.30;;
67500;SDS011;54349;52.528;19.760;2023-06-10T13:42:58;3.90;;;2.30;;
67500;SDS011;54349;52.528;19.760;2023-06-10T13:45:27;4.10;;;2.40;;
67500;SDS011;54349;52.528;19.760;2023-06-10T13:47:56;3.30;;;2.10;;
67500;SDS011;54349;52.528;19.760;2023-06-10T13:50:25;4.00;;;2.30;;
67500;SDS011;54349;52.528;19.760;2023-06-10T13:52:53;3.50;;;2.20;;
67500;SDS011;54349;52.528;19.760;2023-06-10T13:55:22;3.80;;;2.40;;
67500;SDS011;54349;52.528;19.760;2023-06-10T13:57:52;3.90;;;2.10;;
67500;SDS011;54349;52.528;19.760;2023-06-10T14:00:21;4.00;;;2.30;;
67500;SDS011;54349;52.528;19.760;2023-06-10T14:02:49;3.70;;;2.30;;
67500;SDS011;54349;52.528;19.760;2023-06-10T14:05:18;3.80;;;2.10;;
67500;SDS011;54349;52.528;19.760;2023-06-10T14:07:47;4.60;;;2.10;;
67500;SDS011;54349;52.528;19.760;2023-06-10T14:10:15;3.30;;;2.10;;
67500;SDS011;54349;52.528;19.760;2023-06-10T14:12:44;4.20;;;2.20;;
67500;SDS011;54349;52.528;19.760;2023-06-10T14:15:12;3.80;;;2.20;;
67500;SDS011;54349;52.528;19.760;2023-06-10T14:17:41;4.70;;;2.20;;
67500;SDS011;54349;52.528;19.760;2023-06-10T14:20:11;4.50;;;2.40;;
67500;SDS011;54349;52.528;19.760;2023-06-10T14:22:40;4.60;;;2.40;;
67500;SDS011;54349;52.528;19.760;2023-06-10T14:25:13;3.60;;;2.20;;
67500;SDS011;54349;52.528;19.760;2023-06-10T14:27:41;3.70;;;2.40;;
67500;SDS011;54349;52.528;19.760;2023-06-10T14:30:11;3.40;;;2.30;;
67500;SDS011;54349;52.528;19.760;2023-06-10T14:32:41;2.70;;;1.90;;
67500;SDS011;54349;52.528;19.760;2023-06-10T14:35:10;3.40;;;2.20;;
67500;SDS011;54349;52.528;19.760;2023-06-10T14:37:40;4.40;;;2.30;;
67500;SDS011;54349;52.528;19.760;2023-06-10T14:40:08;4.80;;;2.80;;
67500;SDS011;54349;52.528;19.760;2023-06-10T14:42:37;3.40;;;2.20;;
67500;SDS011;54349;52.528;19.760;2023-06-10T14:45:06;3.70;;;2.30;;
67500;SDS011;54349;52.528;19.760;2023-06-10T14:47:36;4.10;;;2.20;;
67500;SDS011;54349;52.528;19.760;2023-06-10T14:50:05;3.60;;;2.00;;
67500;SDS011;54349;52.528;19.760;2023-06-10T14:52:34;4.00;;;2.20;;
67500;SDS011;54349;52.528;19.760;2023-06-10T14:55:03;5.80;;;2.70;;
67500;SDS011;54349;52.528;19.760;2023-06-10T14:57:32;3.70;;;2.20;;
67500;SDS011;54349;52.528;19.760;2023-06-10T15:00:04;4.10;;;2.30;;
67500;SDS011;54349;52.528;19.760;2023-06-10T15:02:35;4.00;;;2.40;;
67500;SDS011;54349;52.528;19.760;2023-06-10T15:05:04;3.70;;;2.20;;
67500;SDS011;54349;52.528;19.760;2023-06-10T15:07:34;4.10;;;2.40;;